Time;durP1;ratioP1;P1;durP2;ratioP2;P2;SDS_P1;SDS_P2;PMS_P1;PMS_P2;Temp;Humidity;BMP_temperature;BMP_pressure;BME280_temperature;BME280_humidity;BME280_pressure;Samples;Min_cycle;Max_cycle;Signal;HPM_P1;HPM_P2
2021/12/09 00:01:06;;;;;;;6.43;4.00;;;;;;;-8.37;66.06;99594.03;5153523;27;20043;-57
2021/12/09 00:03:35;;;;;;;10.83;6.07;;;;;;;-8.55;67.09;99589.31;5152191;27;20038;-56
2021/12/09 00:06:10;;;;;;;9.98;5.65;;;;;;;-8.52;67.17;99601.97;5151861;27;20437;-56
2021/12/09 00:08:37;;;;;;;9.23;4.30;;;;;;;-8.32;66.93;99605.63;5153024;27;20034;-56
2021/12/09 00:11:05;;;;;;;9.07;4.85;;;;;;;-8.27;66.57;99607.84;5134845;27;20042;-57
2021/12/09 00:13:30;;;;;;;11.00;5.47;;;;;;;-8.38;65.92;99600.94;5153072;27;20578;-56
2021/12/09 00:15:58;;;;;;;15.77;5.68;;;;;;;-8.45;67.07;99597.19;5152064;27;20126;-56
2021/12/09 00:18:24;;;;;;;12.77;5.35;;;;;;;-8.41;66.18;99603.75;5152258;27;20084;-56
2021/12/09 00:20:50;;;;;;;4.78;2.45;;;;;;;-8.38;66.01;99610.41;5153174;27;20047;-58
2021/12/09 00:23:16;;;;;;;10.75;5.18;;;;;;;-8.49;67.16;99606.06;5151967;27;20099;-56
2021/12/09 00:25:42;;;;;;;7.55;3.80;;;;;;;-8.46;67.15;99603.28;5152956;27;21833;-56
2021/12/09 00:28:08;;;;;;;11.40;5.20;;;;;;;-8.42;67.00;99598.72;5153132;27;20038;-58
2021/12/09 00:30:35;;;;;;;7.53;4.28;;;;;;;-8.46;66.87;99601.50;5153161;27;20211;-57
2021/12/09 00:33:04;;;;;;;13.75;5.70;;;;;;;-8.43;67.80;99586.81;5153058;27;20046;-55
2021/12/09 00:35:41;;;;;;;7.40;4.07;;;;;;;-8.47;67.68;99599.88;5152909;27;20046;-57
2021/12/09 00:38:09;;;;;;;10.07;4.45;;;;;;;-8.49;67.08;99586.31;5152030;27;20070;-55
2021/12/09 00:40:36;;;;;;;13.02;4.82;;;;;;;-8.40;67.14;99581.44;5151680;27;20127;-55
2021/12/09 00:43:04;;;;;;;9.25;4.35;;;;;;;-8.51;67.07;99571.94;5153007;27;20087;-57
2021/12/09 00:45:30;;;;;;;11.30;5.88;;;;;;;-8.33;67.38;99587.72;5154817;27;20053;-56
2021/12/09 00:47:56;;;;;;;9.55;4.78;;;;;;;-8.29;66.58;99589.97;5156911;27;20415;-57
2021/12/09 00:50:22;;;;;;;9.18;4.15;;;;;;;-8.17;66.35;99602.88;5155765;27;20051;-56
2021/12/09 00:52:49;;;;;;;12.65;5.25;;;;;;;-8.26;67.86;99606.94;5156517;27;20038;-58
2021/12/09 00:55:17;;;;;;;10.40;4.50;;;;;;;-8.36;66.75;99598.25;5157123;27;20046;-53
2021/12/09 00:57:43;;;;;;;8.43;4.57;;;;;;;-8.30;67.54;99606.31;5157047;27;20030;-56
2021/12/09 01:00:15;;;;;;;6.50;3.80;;;;;;;-8.28;67.24;99608.78;5157016;27;20043;-56
2021/12/09 01:02:41;;;;;;;9.75;4.68;;;;;;;-8.30;67.09;99598.59;5155445;27;20524;-57
2021/12/09 01:05:09;;;;;;;10.07;4.53;;;;;;;-8.22;67.03;99596.31;5156925;27;20445;-55
2021/12/09 01:07:35;;;;;;;10.00;4.30;;;;;;;-8.17;66.81;99595.16;5155320;27;20485;-58
2021/12/09 01:10:02;;;;;;;8.23;4.43;;;;;;;-8.30;67.73;99601.19;5155262;27;20038;-53
2021/12/09 01:12:28;;;;;;;11.73;4.80;;;;;;;-8.32;66.49;99608.19;5155404;27;20031;-56
2021/12/09 01:14:54;;;;;;;7.57;3.88;;;;;;;-8.16;66.39;99602.75;5156757;27;20047;-57
2021/12/09 01:17:20;;;;;;;9.93;4.53;;;;;;;-8.27;67.23;99600.94;5155378;27;20407;-57
2021/12/09 01:19:46;;;;;;;10.38;4.65;;;;;;;-8.42;66.64;99596.97;5155671;27;20053;-56
2021/12/09 01:22:12;;;;;;;10.27;4.60;;;;;;;-8.41;66.95;99602.91;5156346;27;20046;-56
2021/12/09 01:24:38;;;;;;;6.63;3.50;;;;;;;-8.42;67.24;99617.53;5156204;27;20047;-57
2021/12/09 01:27:07;;;;;;;7.15;3.08;;;;;;;-8.24;66.50;99617.91;5156054;27;20083;-54
2021/12/09 01:29:36;;;;;;;8.05;4.47;;;;;;;-8.22;65.96;99619.44;5156208;27;20039;-58
2021/12/09 01:32:06;;;;;;;6.40;3.78;;;;;;;-8.11;66.99;99626.38;5155525;27;20046;-56
2021/12/09 01:34:33;;;;;;;10.13;3.80;;;;;;;-8.11;66.64;99620.44;5156166;27;20050;-56
2021/12/09 01:36:59;;;;;;;12.27;4.30;;;;;;;-8.07;66.23;99638.09;5155862;27;20382;-58
2021/12/09 01:39:28;;;;;;;6.07;3.53;;;;;;;-8.03;66.17;99626.66;5155610;27;20089;-57
2021/12/09 01:41:57;;;;;;;5.63;3.22;;;;;;;-8.11;65.41;99630.72;5155932;27;20087;-56
2021/12/09 01:44:25;;;;;;;8.32;4.07;;;;;;;-8.31;65.83;99632.97;5154448;27;20065;-57
2021/12/09 01:46:52;;;;;;;6.57;3.83;;;;;;;-8.29;66.13;99628.56;5155260;27;20306;-57
2021/12/09 01:49:19;;;;;;;8.85;3.47;;;;;;;-8.30;67.08;99632.03;5155549;27;20051;-54
2021/12/09 01:51:46;;;;;;;10.20;3.92;;;;;;;-8.35;66.83;99623.84;5154389;27;20043;-54
2021/12/09 01:54:14;;;;;;;9.35;4.07;;;;;;;-8.41;67.57;99633.78;5154140;27;20055;-58
2021/12/09 01:56:40;;;;;;;7.55;4.07;;;;;;;-8.35;66.67;99615.28;5154869;27;20039;-57
2021/12/09 01:59:07;;;;;;;7.30;3.85;;;;;;;-8.31;66.13;99614.16;5137039;27;20561;-56
2021/12/09 02:01:35;;;;;;;9.00;4.30;;;;;;;-8.24;65.86;99617.91;5155410;27;20046;-58
2021/12/09 02:04:05;;;;;;;7.72;3.97;;;;;;;-8.20;66.16;99611.63;5155811;27;20133;-53
2021/12/09 02:06:34;;;;;;;9.23;4.05;;;;;;;-8.23;66.08;99635.00;5154867;27;20095;-53
2021/12/09 02:09:01;;;;;;;8.25;4.55;;;;;;;-8.29;65.60;99628.56;5155670;27;20038;-56
2021/12/09 02:11:27;;;;;;;7.93;4.07;;;;;;;-8.18;66.33;99639.81;5153920;27;20141;-53
2021/12/09 02:13:56;;;;;;;9.60;3.75;;;;;;;-8.32;66.06;99636.50;5154039;27;20126;-58
2021/12/09 02:16:23;;;;;;;4.60;3.30;;;;;;;-8.25;65.73;99642.00;5154227;27;20043;-57
2021/12/09 02:18:49;;;;;;;9.30;3.95;;;;;;;-8.24;66.67;99651.34;5155427;27;20098;-54
2021/12/09 02:21:21;;;;;;;12.02;5.30;;;;;;;-8.31;67.02;99638.13;5154191;27;20388;-56
2021/12/09 02:23:50;;;;;;;10.30;5.13;;;;;;;-8.29;66.64;99636.28;5154035;27;20034;-57
2021/12/09 02:26:22;;;;;;;13.43;5.68;;;;;;;-8.15;66.33;99642.16;5154344;27;20132;-56
2021/12/09 02:28:50;;;;;;;14.18;5.50;;;;;;;-8.34;66.32;99640.91;5154121;27;20035;-58
2021/12/09 02:31:16;;;;;;;15.52;7.00;;;;;;;-8.30;67.14;99644.88;5154881;27;20030;-55
2021/12/09 02:33:42;;;;;;;19.83;6.47;;;;;;;-8.30;66.24;99650.03;5155197;27;20042;-56
2021/12/09 02:36:08;;;;;;;26.67;8.80;;;;;;;-8.45;66.93;99653.75;5153665;27;20134;-55
2021/12/09 02:38:42;;;;;;;20.70;7.28;;;;;;;-8.34;67.47;99645.25;5154736;27;20039;-57
2021/12/09 02:41:10;;;;;;;15.45;5.90;;;;;;;-8.27;66.23;99654.13;5152713;27;20042;-56
2021/12/09 02:43:39;;;;;;;8.95;5.30;;;;;;;-8.24;67.35;99659.88;5154894;27;20414;-56
2021/12/09 02:46:05;;;;;;;10.25;4.70;;;;;;;-8.26;66.01;99646.34;5154630;27;20520;-56
2021/12/09 02:48:30;;;;;;;5.75;3.88;;;;;;;-8.16;66.47;99654.19;5154770;27;20078;-59
2021/12/09 02:50:56;;;;;;;8.85;4.32;;;;;;;-8.06;65.37;99662.91;5154274;27;20054;-56
2021/12/09 02:53:22;;;;;;;3.85;2.80;;;;;;;-8.17;65.04;99682.59;5154327;27;20568;-57
2021/12/09 02:55:48;;;;;;;10.70;4.55;;;;;;;-8.29;66.05;99671.47;5154510;27;20078;-56
2021/12/09 02:58:14;;;;;;;7.32;3.80;;;;;;;-8.36;66.40;99675.38;5152864;27;20072;-58
2021/12/09 03:01:12;;;;;;;7.47;3.92;;;;;;;-8.50;66.75;99672.09;5153498;27;20426;-54
2021/12/09 03:03:49;;;;;;;7.80;4.10;;;;;;;-8.20;66.51;99672.53;5154284;27;20415;-57
2021/12/09 03:06:20;;;;;;;10.32;3.83;;;;;;;-8.21;66.46;99681.97;5154030;27;20041;-53
2021/12/09 03:08:46;;;;;;;6.28;3.95;;;;;;;-8.47;66.05;99671.88;5152446;27;20030;-57
2021/12/09 03:11:16;;;;;;;7.68;3.65;;;;;;;-8.66;66.41;99678.41;5152764;27;20050;-56
2021/12/09 03:13:43;;;;;;;25.58;6.43;;;;;;;-8.75;66.33;99672.16;5154354;27;20031;-56
2021/12/09 03:16:09;;;;;;;8.50;4.65;;;;;;;-8.75;66.79;99672.97;5154140;27;20335;-55
2021/12/09 03:18:42;;;;;;;10.77;4.88;;;;;;;-8.80;67.43;99680.19;5153121;27;20031;-55
2021/12/09 03:21:21;;;;;;;7.95;4.32;;;;;;;-8.51;66.39;99679.88;5152644;27;20038;-57
2021/12/09 03:23:48;;;;;;;7.32;3.88;;;;;;;-8.36;65.41;99678.75;5153972;27;20469;-58
2021/12/09 03:26:16;;;;;;;8.07;4.25;;;;;;;-8.47;65.86;99677.00;5154068;27;20030;-56
2021/12/09 03:28:42;;;;;;;10.10;4.28;;;;;;;-8.50;66.47;99684.09;5153515;27;20113;-55
2021/12/09 03:31:10;;;;;;;7.53;3.75;;;;;;;-8.43;65.87;99675.03;5152661;27;20093;-57
2021/12/09 03:33:37;;;;;;;8.43;3.28;;;;;;;-8.48;65.64;99689.97;5153723;27;20134;-57
2021/12/09 03:36:05;;;;;;;7.97;4.45;;;;;;;-8.50;66.45;99684.94;5151356;27;20058;-55
2021/12/09 03:38:32;;;;;;;7.97;3.97;;;;;;;-8.42;65.18;99679.22;5153497;27;20042;-56
2021/12/09 03:40:58;;;;;;;9.82;4.63;;;;;;;-8.54;65.91;99683.50;5153505;27;20045;-56
2021/12/09 03:43:25;;;;;;;8.98;4.93;;;;;;;-8.48;65.97;99683.06;5153311;27;20038;-55
2021/12/09 03:45:54;;;;;;;8.32;4.43;;;;;;;-8.50;66.42;99684.94;5153898;27;20042;-55
2021/12/09 03:48:22;;;;;;;9.10;3.78;;;;;;;-8.70;65.93;99683.75;5153477;27;20043;-53
2021/12/09 03:50:50;;;;;;;6.97;4.10;;;;;;;-8.71;66.22;99691.56;5153698;27;20047;-55
2021/12/09 03:53:16;;;;;;;12.05;4.68;;;;;;;-8.57;65.16;99688.03;5153626;27;20113;-56
2021/12/09 03:55:41;;;;;;;9.30;5.30;;;;;;;-8.59;65.61;99680.41;5151329;27;20051;-56
2021/12/09 03:58:07;;;;;;;9.48;4.90;;;;;;;-8.54;65.79;99686.06;5153327;27;20407;-57
2021/12/09 04:00:35;;;;;;;7.20;3.85;;;;;;;-8.53;66.10;99682.59;5153511;27;20069;-54
2021/12/09 04:03:04;;;;;;;10.85;5.22;;;;;;;-8.58;65.89;99676.13;5151209;27;20042;-56
2021/12/09 04:05:30;;;;;;;5.97;3.20;;;;;;;-8.49;65.55;99699.41;5151967;27;20042;-58
2021/12/09 04:07:56;;;;;;;6.97;4.13;;;;;;;-8.53;64.94;99689.44;5152218;27;20045;-57
2021/12/09 04:10:21;;;;;;;11.23;3.65;;;;;;;-8.43;64.44;99697.34;5151735;27;20050;-57
2021/12/09 04:12:47;;;;;;;8.52;4.15;;;;;;;-8.37;65.54;99700.28;5152681;27;20534;-57
2021/12/09 04:15:16;;;;;;;10.80;4.28;;;;;;;-8.47;64.73;99701.88;5151603;27;20138;-57
2021/12/09 04:17:43;;;;;;;7.50;3.38;;;;;;;-8.42;64.03;99706.69;5152828;27;20125;-58
2021/12/09 04:20:10;;;;;;;4.50;2.90;;;;;;;-8.49;64.98;99702.00;5153105;27;20184;-56
2021/12/09 04:22:36;;;;;;;7.53;4.30;;;;;;;-8.46;65.58;99690.69;5152674;27;20031;-58
2021/12/09 04:25:04;;;;;;;7.55;3.88;;;;;;;-8.45;65.32;99687.16;5153251;27;20047;-58
2021/12/09 04:27:30;;;;;;;8.23;4.30;;;;;;;-8.54;64.44;99688.63;5151940;27;20034;-55
2021/12/09 04:29:57;;;;;;;7.95;3.60;;;;;;;-8.55;65.58;99696.47;5152539;27;20035;-53
2021/12/09 04:32:23;;;;;;;6.25;3.65;;;;;;;-8.55;65.21;99688.75;5153198;27;20045;-56
2021/12/09 04:34:53;;;;;;;7.20;4.13;;;;;;;-8.41;64.92;99700.63;5152985;27;20042;-57
2021/12/09 04:37:20;;;;;;;6.53;3.67;;;;;;;-8.54;65.06;99700.66;5150595;27;20151;-57
2021/12/09 04:39:47;;;;;;;8.48;4.40;;;;;;;-8.52;64.13;99704.78;5152885;27;20089;-57
2021/12/09 04:42:13;;;;;;;7.35;4.28;;;;;;;-8.74;65.70;99694.34;5152993;27;20062;-59
2021/12/09 04:44:38;;;;;;;4.85;3.75;;;;;;;-8.79;65.20;99715.25;5153043;27;20039;-58
2021/12/09 04:47:04;;;;;;;6.47;4.13;;;;;;;-8.64;65.01;99717.69;5152844;27;20038;-60
2021/12/09 04:49:31;;;;;;;8.43;3.70;;;;;;;-8.50;64.54;99713.22;5150623;27;20527;-55
2021/12/09 04:52:01;;;;;;;8.65;4.32;;;;;;;-8.63;64.25;99717.56;5134188;27;20042;-61
2021/12/09 04:54:28;;;;;;;7.82;4.57;;;;;;;-8.73;64.38;99712.25;5152931;27;20043;-56
2021/12/09 04:56:55;;;;;;;7.45;3.95;;;;;;;-8.82;65.18;99707.75;5150957;27;20423;-54
2021/12/09 04:59:21;;;;;;;10.05;4.43;;;;;;;-8.62;65.29;99702.94;5152711;27;20046;-57
2021/12/09 05:01:50;;;;;;;5.38;3.13;;;;;;;-9.01;65.28;99697.91;5152311;27;20039;-56
2021/12/09 05:04:17;;;;;;;9.15;4.55;;;;;;;-9.01;65.64;99702.22;5152540;27;20074;-57
2021/12/09 05:06:43;;;;;;;6.70;4.07;;;;;;;-8.90;64.28;99710.00;5150524;27;20047;-55
2021/12/09 05:09:15;;;;;;;5.68;3.75;;;;;;;-9.05;64.45;99708.50;5152290;27;20046;-55
2021/12/09 05:14:07;;;;;;;8.50;4.05;;;;;;;-9.00;64.68;99714.13;5151022;27;20099;-56
2021/12/09 05:16:35;;;;;;;7.32;4.40;;;;;;;-9.21;64.95;99717.22;5150576;27;20043;-56
2021/12/09 05:19:01;;;;;;;7.93;3.72;;;;;;;-9.28;65.43;99722.88;5152135;27;20303;-53
2021/12/09 05:21:39;;;;;;;9.30;4.03;;;;;;;-9.24;64.83;99721.75;5151016;27;20030;-57
2021/12/09 05:24:13;;;;;;;8.50;4.43;;;;;;;-9.50;65.07;99731.19;5150811;27;20047;-57
2021/12/09 05:26:47;;;;;;;8.57;3.55;;;;;;;-9.60;66.17;99724.09;5131314;27;20038;-62
2021/12/09 05:29:14;;;;;;;9.45;4.55;;;;;;;-9.52;65.66;99728.72;5149868;27;20070;-61
2021/12/09 05:34:25;;;;;;;6.43;3.63;;;;;;;-9.99;65.77;99739.50;5155320;27;20069;-62
2021/12/09 05:36:51;;;;;;;8.70;4.70;;;;;;;-9.89;65.15;99741.38;5137310;27;20133;-60
2021/12/09 05:39:20;;;;;;;8.18;5.00;;;;;;;-10.13;65.44;99742.94;5154313;27;20054;-62
2021/12/09 05:41:47;;;;;;;8.98;4.72;;;;;;;-10.12;65.26;99744.56;5148945;27;20495;-61
2021/12/09 05:44:13;;;;;;;7.65;4.07;;;;;;;-10.21;65.64;99745.97;5120904;27;20096;-63
2021/12/09 05:46:42;;;;;;;7.15;4.38;;;;;;;-10.41;66.40;99749.00;5131416;27;20031;-61
2021/12/09 05:49:08;;;;;;;11.32;4.95;;;;;;;-10.49;67.05;99744.34;5131706;27;20477;-61
2021/12/09 05:51:34;;;;;;;9.20;3.75;;;;;;;-10.57;66.91;99739.69;5136363;27;20046;-60
2021/12/09 05:54:00;;;;;;;10.20;4.60;;;;;;;-10.54;66.86;99757.44;5151940;27;20091;-57
2021/12/09 05:56:26;;;;;;;9.60;4.43;;;;;;;-10.65;66.72;99748.75;5149633;27;20031;-61
2021/12/09 05:58:53;;;;;;;12.23;4.85;;;;;;;-10.66;66.70;99753.06;5149225;27;20043;-58
2021/12/09 06:01:20;;;;;;;8.07;3.35;;;;;;;-10.65;66.94;99748.75;5149769;27;20042;-57
2021/12/09 06:03:46;;;;;;;11.75;4.43;;;;;;;-10.69;67.12;99749.88;5151113;27;20035;-57
2021/12/09 06:06:12;;;;;;;8.40;4.57;;;;;;;-10.75;67.73;99749.31;5150594;27;20049;-55
2021/12/09 06:08:40;;;;;;;9.40;4.32;;;;;;;-10.90;67.55;99765.63;5149786;27;20038;-57
2021/12/09 06:11:08;;;;;;;7.65;4.28;;;;;;;-10.75;67.27;99780.06;5150965;27;20035;-59
2021/12/09 06:13:37;;;;;;;7.00;3.95;;;;;;;-10.76;67.24;99765.63;5150238;27;20510;-57
2021/12/09 06:16:03;;;;;;;9.93;4.63;;;;;;;-10.74;66.99;99765.50;5150332;27;20034;-58
2021/12/09 06:18:29;;;;;;;13.90;5.38;;;;;;;-10.64;67.59;99765.78;5152047;27;20034;-58
2021/12/09 06:20:55;;;;;;;12.02;4.95;;;;;;;-10.55;66.66;99771.19;5151678;27;20058;-57
2021/12/09 06:23:21;;;;;;;6.07;4.20;;;;;;;-10.58;66.66;99780.78;5151319;27;20455;-57
2021/12/09 06:25:47;;;;;;;8.80;3.83;;;;;;;-10.55;65.72;99781.44;5153431;27;20088;-57
2021/12/09 06:28:13;;;;;;;10.48;5.20;;;;;;;-10.61;66.39;99786.09;5153451;27;20035;-59
2021/12/09 06:30:39;;;;;;;12.95;5.68;;;;;;;-10.69;67.03;99770.38;5152268;27;20216;-57
2021/12/09 06:33:05;;;;;;;10.93;4.25;;;;;;;-10.53;66.18;99782.16;5153373;27;20134;-58
2021/12/09 06:35:33;;;;;;;10.80;4.75;;;;;;;-10.57;66.50;99785.00;5131676;27;20498;-57
2021/12/09 06:38:00;;;;;;;7.00;3.83;;;;;;;-10.58;65.88;99783.34;5130841;27;20111;-56
2021/12/09 06:40:27;;;;;;;9.85;4.80;;;;;;;-10.59;66.43;99782.53;5129507;27;20503;-57
2021/12/09 06:42:53;;;;;;;7.28;4.25;;;;;;;-10.76;67.14;99790.41;5148404;27;20492;-58
2021/12/09 06:45:21;;;;;;;10.45;4.15;;;;;;;-10.62;66.42;99792.13;5149738;27;20046;-57
2021/12/09 06:47:48;;;;;;;12.55;4.80;;;;;;;-10.55;66.09;99798.53;5149330;27;20042;-56
2021/12/09 06:50:17;;;;;;;13.65;5.35;;;;;;;-10.49;66.35;99790.47;5149964;27;20066;-57
2021/12/09 06:52:43;;;;;;;12.88;4.75;;;;;;;-10.63;66.85;99804.13;5149923;27;20193;-57
2021/12/09 06:55:12;;;;;;;15.15;5.35;;;;;;;-10.62;66.09;99803.19;5150833;27;20129;-58
2021/12/09 06:57:39;;;;;;;9.48;5.10;;;;;;;-10.64;66.83;99804.22;5150023;27;20041;-57
2021/12/09 07:00:08;;;;;;;9.82;4.72;;;;;;;-10.63;66.47;99803.31;5148704;27;20038;-54
2021/12/09 07:02:34;;;;;;;15.57;7.18;;;;;;;-10.66;66.26;99800.94;5149218;27;20134;-58
2021/12/09 07:04:59;;;;;;;9.35;4.65;;;;;;;-10.71;66.15;99796.06;5150976;27;20092;-56
2021/12/09 07:07:28;;;;;;;7.85;4.93;;;;;;;-10.78;66.54;99807.59;5150722;27;20037;-57
2021/12/09 07:09:54;;;;;;;12.40;5.88;;;;;;;-10.70;66.49;99807.16;5117001;27;20056;-55
2021/12/09 07:12:20;;;;;;;9.13;4.43;;;;;;;-10.70;66.46;99800.28;5148631;27;20434;-57
2021/12/09 07:14:47;;;;;;;9.75;5.00;;;;;;;-10.80;66.76;99817.94;5151630;27;20043;-58
2021/12/09 07:17:13;;;;;;;10.23;5.18;;;;;;;-10.73;66.27;99826.09;5151494;27;20095;-59
2021/12/09 07:19:40;;;;;;;7.28;3.85;;;;;;;-10.80;66.47;99810.25;5149600;27;20488;-57
2021/12/09 07:22:06;;;;;;;5.70;3.97;;;;;;;-10.98;66.61;99813.91;5151903;27;20161;-56
2021/12/09 07:24:32;;;;;;;11.27;5.57;;;;;;;-10.99;67.28;99814.81;5149640;27;20094;-57
2021/12/09 07:26:58;;;;;;;9.55;4.90;;;;;;;-10.89;67.12;99820.22;5148588;27;20035;-59
2021/12/09 07:29:25;;;;;;;8.90;4.35;;;;;;;-10.86;66.81;99822.59;5148682;27;20043;-57
2021/12/09 07:31:51;;;;;;;10.27;5.38;;;;;;;-10.78;66.91;99810.97;5148122;27;20567;-58
2021/12/09 07:34:17;;;;;;;10.85;5.28;;;;;;;-10.72;66.34;99808.97;5149497;27;20046;-57
2021/12/09 07:36:43;;;;;;;11.43;5.10;;;;;;;-10.82;66.61;99824.06;5147615;27;20426;-57
2021/12/09 07:39:10;;;;;;;9.40;4.85;;;;;;;-11.01;67.27;99826.88;5150013;27;20042;-55
2021/12/09 07:41:36;;;;;;;8.32;5.07;;;;;;;-10.91;67.20;99832.28;5145961;27;20408;-57
2021/12/09 07:44:02;;;;;;;12.68;5.20;;;;;;;-10.80;66.81;99840.16;5146351;27;20047;-59
2021/12/09 07:46:29;;;;;;;11.10;6.13;;;;;;;-10.69;66.32;99822.41;5145851;27;20466;-58
2021/12/09 07:48:55;;;;;;;10.10;5.03;;;;;;;-10.65;66.01;99826.44;5130767;27;20091;-55
2021/12/09 07:51:21;;;;;;;12.15;6.13;;;;;;;-10.62;66.06;99828.81;5149993;27;20445;-57
2021/12/09 07:53:51;;;;;;;9.52;4.63;;;;;;;-10.58;65.93;99837.16;5147880;27;20142;-57
2021/12/09 07:56:17;;;;;;;11.63;5.25;;;;;;;-10.63;66.31;99831.47;5146045;27;20035;-59
2021/12/09 07:58:43;;;;;;;12.88;5.95;;;;;;;-10.61;66.03;99837.34;5148670;27;20398;-57
2021/12/09 08:01:10;;;;;;;12.90;5.22;;;;;;;-10.48;65.71;99848.50;5146973;27;20050;-59
2021/12/09 08:03:36;;;;;;;10.18;4.82;;;;;;;-10.53;65.65;99850.50;5130165;27;20093;-58
2021/12/09 08:06:03;;;;;;;13.80;5.90;;;;;;;-10.43;65.38;99863.59;5147108;27;20055;-55
2021/12/09 08:08:29;;;;;;;15.05;6.30;;;;;;;-10.40;65.10;99860.84;5148035;27;20043;-56
2021/12/09 08:10:55;;;;;;;10.63;5.43;;;;;;;-10.41;65.16;99856.63;5147650;27;20073;-57
2021/12/09 08:13:22;;;;;;;13.75;5.47;;;;;;;-10.53;65.45;99855.63;5146973;27;20495;-58
2021/12/09 08:15:50;;;;;;;11.82;5.70;;;;;;;-10.48;65.45;99866.44;5147452;27;20046;-56
2021/12/09 08:20:47;;;;;;;8.13;4.07;;;;;;;-10.45;65.45;99880.81;5149810;27;20060;-58
2021/12/09 08:23:13;;;;;;;11.75;5.35;;;;;;;-10.47;65.88;99873.22;5148839;27;20074;-56
2021/12/09 08:25:40;;;;;;;9.43;4.68;;;;;;;-10.44;65.52;99873.03;5150090;27;20091;-56
2021/12/09 08:28:06;;;;;;;7.68;4.80;;;;;;;-10.32;65.43;99874.84;5131200;27;20039;-56
2021/12/09 08:30:33;;;;;;;8.32;4.22;;;;;;;-10.24;64.87;99855.59;5146858;27;20422;-55
2021/12/09 08:32:59;;;;;;;12.35;6.00;;;;;;;-10.16;64.26;99851.63;5149132;27;20053;-57
2021/12/09 08:35:25;;;;;;;8.35;5.22;;;;;;;-10.17;65.16;99859.44;5148442;27;20066;-56
2021/12/09 08:37:54;;;;;;;8.95;5.15;;;;;;;-9.93;64.77;99860.47;5150799;27;20031;-56
2021/12/09 08:40:20;;;;;;;13.05;5.07;;;;;;;-10.08;64.55;99864.00;5148836;27;20035;-56
2021/12/09 08:42:49;;;;;;;8.52;4.13;;;;;;;-9.88;64.06;99870.44;5149537;27;20541;-56
2021/12/09 08:45:16;;;;;;;9.35;4.32;;;;;;;-9.87;63.45;99866.97;5150767;27;20070;-56
2021/12/09 08:47:42;;;;;;;10.80;3.92;;;;;;;-9.90;63.80;99867.97;5149697;27;20424;-57
2021/12/09 08:50:10;;;;;;;9.93;5.07;;;;;;;-9.83;64.09;99858.97;5149370;27;20042;-54
2021/12/09 08:52:36;;;;;;;11.68;5.57;;;;;;;-9.75;63.87;99861.06;5151371;27;20111;-55
2021/12/09 08:55:03;;;;;;;13.00;5.57;;;;;;;-9.67;63.85;99861.41;5149529;27;20078;-54
2021/12/09 08:57:31;;;;;;;9.02;5.32;;;;;;;-9.73;64.80;99863.56;5115931;27;20091;-56
2021/12/09 08:59:58;;;;;;;5.72;4.13;;;;;;;-9.74;64.18;99865.28;5150706;27;20495;-57
2021/12/09 09:02:24;;;;;;;10.93;5.05;;;;;;;-9.78;64.96;99863.81;5151701;27;20074;-56
2021/12/09 09:04:50;;;;;;;8.73;4.50;;;;;;;-9.91;64.42;99868.06;5149458;27;20115;-52
2021/12/09 09:07:17;;;;;;;10.30;4.15;;;;;;;-9.78;63.65;99865.56;5150450;27;20046;-58
2021/12/09 09:09:45;;;;;;;9.60;4.80;;;;;;;-9.69;64.37;99865.81;5135866;27;20054;-57
2021/12/09 09:12:14;;;;;;;9.10;4.85;;;;;;;-9.68;63.68;99864.06;5154239;27;20449;-52
2021/12/09 09:14:41;;;;;;;13.63;5.90;;;;;;;-9.61;63.51;99862.78;5155466;27;20444;-57
2021/12/09 09:17:08;;;;;;;12.90;5.40;;;;;;;-9.60;63.78;99859.28;5154644;27;20069;-57
2021/12/09 09:19:35;;;;;;;6.85;4.43;;;;;;;-9.51;62.91;99863.00;5154841;27;20046;-55
2021/12/09 09:22:01;;;;;;;13.23;6.40;;;;;;;-9.53;63.82;99868.22;5153454;27;20042;-57
2021/12/09 09:24:27;;;;;;;13.30;5.68;;;;;;;-9.49;63.41;99862.00;5152293;27;20043;-57
2021/12/09 09:26:53;;;;;;;14.50;5.93;;;;;;;-9.42;62.93;99870.94;5153195;27;20045;-55
2021/12/09 09:29:20;;;;;;;12.95;6.63;;;;;;;-9.48;63.46;99862.81;5152665;27;20535;-57
2021/12/09 09:31:46;;;;;;;11.40;5.20;;;;;;;-9.41;63.18;99859.75;5152661;27;20246;-58
2021/12/09 09:34:13;;;;;;;10.02;5.15;;;;;;;-9.34;62.96;99867.06;5151950;27;20499;-57
2021/12/09 09:36:44;;;;;;;11.35;5.97;;;;;;;-9.42;63.02;99858.09;5152592;27;20054;-58
2021/12/09 09:39:18;;;;;;;12.85;5.57;;;;;;;-9.38;63.86;99869.81;5153797;27;20038;-56
2021/12/09 09:41:54;;;;;;;10.90;5.05;;;;;;;-9.35;62.74;99865.41;5152178;27;20035;-55
2021/12/09 09:44:23;;;;;;;10.70;5.38;;;;;;;-9.52;63.87;99854.47;5152265;27;20049;-57
2021/12/09 09:46:48;;;;;;;10.85;5.63;;;;;;;-9.38;63.12;99854.44;5151702;27;20038;-57
2021/12/09 09:49:14;;;;;;;13.23;5.85;;;;;;;-9.41;62.54;99843.50;5151085;27;20103;-57
2021/12/09 09:51:40;;;;;;;14.57;6.57;;;;;;;-9.34;63.54;99851.66;5150420;27;20187;-58
2021/12/09 09:54:07;;;;;;;10.98;6.55;;;;;;;-9.22;62.64;99849.09;5151834;27;20069;-56
2021/12/09 09:56:35;;;;;;;14.82;5.32;;;;;;;-9.27;62.60;99847.75;5152684;27;20035;-58
2021/12/09 09:59:05;;;;;;;12.27;5.03;;;;;;;-9.28;63.67;99848.69;5152305;27;20047;-56
2021/12/09 10:01:33;;;;;;;9.85;5.97;;;;;;;-9.18;63.02;99852.28;5148745;27;20049;-56
2021/12/09 10:04:12;;;;;;;10.93;4.45;;;;;;;-9.17;62.41;99843.69;5125210;27;20047;-56
2021/12/09 10:06:40;;;;;;;18.25;5.93;;;;;;;-9.04;62.88;99839.38;5129577;27;20107;-56
2021/12/09 10:09:07;;;;;;;14.23;6.00;;;;;;;-9.08;62.96;99837.13;5127837;27;20082;-54
2021/12/09 10:11:33;;;;;;;11.90;5.55;;;;;;;-9.15;63.07;99839.25;5129953;27;20484;-55
2021/12/09 10:14:22;;;;;;;12.88;5.35;;;;;;;-9.03;62.61;99843.59;5132168;27;20075;-57
2021/12/09 10:17:11;;;;;;;11.35;5.80;;;;;;;-9.07;62.69;99829.31;5128872;27;20512;-56
2021/12/09 10:19:48;;;;;;;10.65;5.30;;;;;;;-9.00;63.20;99840.84;5130850;27;20035;-58
2021/12/09 10:22:22;;;;;;;12.80;5.13;;;;;;;-8.92;61.97;99846.25;5130843;27;20515;-55
2021/12/09 10:24:50;;;;;;;15.07;5.88;;;;;;;-8.84;62.65;99858.59;5131708;27;20046;-55
2021/12/09 10:27:31;;;;;;;12.52;5.82;;;;;;;-8.97;63.33;99863.75;5131945;27;20451;-56
2021/12/09 10:30:18;;;;;;;13.40;5.88;;;;;;;-9.07;63.79;99860.13;5132520;27;20130;-54
2021/12/09 10:32:45;;;;;;;14.18;6.63;;;;;;;-9.09;63.03;99873.97;5131932;27;20035;-52
2021/12/09 10:35:20;;;;;;;13.10;6.40;;;;;;;-9.01;62.99;99874.31;5130235;27;20499;-56
2021/12/09 10:37:49;;;;;;;15.50;6.05;;;;;;;-8.96;63.44;99875.66;5141386;27;20593;-57
2021/12/09 10:40:15;;;;;;;11.77;6.63;;;;;;;-9.04;62.98;99875.34;5148091;27;20221;-58
2021/12/09 10:42:55;;;;;;;17.80;6.95;;;;;;;-9.01;62.87;99872.56;5147962;27;20049;-59
2021/12/09 10:45:29;;;;;;;13.55;6.07;;;;;;;-9.06;63.05;99873.78;5147408;27;20121;-56
2021/12/09 10:48:00;;;;;;;9.20;5.65;;;;;;;-9.01;63.85;99874.31;5147942;27;20431;-57
2021/12/09 10:50:36;;;;;;;15.32;6.82;;;;;;;-8.97;62.41;99865.47;5132428;27;20538;-54
2021/12/09 10:53:19;;;;;;;15.48;6.50;;;;;;;-8.90;63.60;99871.06;5148851;27;20038;-58
2021/12/09 10:55:50;;;;;;;11.48;6.25;;;;;;;-8.93;62.35;99867.75;5149590;27;20047;-56
2021/12/09 10:58:19;;;;;;;9.32;5.20;;;;;;;-9.05;62.66;99865.19;5127932;27;20035;-56
2021/12/09 11:00:56;;;;;;;13.43;6.95;;;;;;;-9.06;63.80;99871.22;5148556;27;20039;-56
2021/12/09 11:03:23;;;;;;;11.88;5.25;;;;;;;-9.04;63.48;99867.63;5149550;27;20034;-55
2021/12/09 11:06:03;;;;;;;14.13;5.38;;;;;;;-9.02;62.72;99877.81;5152342;27;20545;-55
2021/12/09 11:08:29;;;;;;;;;;;;;;;-9.11;63.24;99878.41;5152912;27;20158;-56
2021/12/09 11:11:04;;;;;;;14.80;6.50;;;;;;;-9.08;63.52;99875.66;5133460;27;20384;-56
2021/12/09 11:13:43;;;;;;;12.98;4.93;;;;;;;-9.09;63.20;99873.97;5150347;27;20074;-61
2021/12/09 11:16:09;;;;;;;16.05;6.82;;;;;;;-9.04;63.72;99875.34;5151260;27;20049;-56
2021/12/09 11:18:42;;;;;;;13.80;6.82;;;;;;;-9.07;64.26;99885.00;5148602;27;20584;-57
2021/12/09 11:21:10;;;;;;;14.13;6.18;;;;;;;-9.16;64.45;99884.66;5147484;27;20070;-57
2021/12/09 11:23:37;;;;;;;16.88;7.50;;;;;;;-9.09;64.62;99890.22;5148769;27;20046;-54
2021/12/09 11:26:27;;;;;;;16.83;8.25;;;;;;;-9.22;65.27;99889.38;5146104;27;20069;-57
2021/12/09 11:28:58;;;;;;;11.95;6.53;;;;;;;-9.15;64.60;99891.47;5148122;27;20035;-58
2021/12/09 11:31:28;;;;;;;14.00;6.53;;;;;;;-9.10;64.26;99891.16;5148790;27;20092;-58
2021/12/09 11:34:04;;;;;;;10.35;5.82;;;;;;;-9.09;64.52;99897.09;5148385;27;20507;-61
2021/12/09 11:37:05;;;;;;;16.00;7.30;;;;;;;-9.16;64.99;99894.13;5147349;27;20046;-60
2021/12/09 11:39:33;;;;;;;11.30;6.07;;;;;;;-9.08;64.22;99903.91;5150588;27;20047;-57